Impacts METAR Board INFO
IDs:

KIAH - Houston/Bush Intl, TX, US

Updated at: 1545 UTC 23 Jan 2018
Potential Impact None Slight Moderate High
Time23/03Z 23/04Z 23/05Z 23/06Z 23/07Z 23/08Z 23/09Z 23/10Z 23/11Z 23/12Z 23/13Z 23/14Z 23/15Z
VIS10 10 10 10 10 10 10 10 10 10 10 10 10
CIG-- -- -- -- -- -- -- -- -- -- -- 250 250
CoverSCTSCTSCTSCTSCTSCTSCTSCTSCTSCTSCTBKNBKN
FltCatVFRVFRVFRVFRVFRVFRVFRVFRVFRVFRVFRVFRVFR
WX--------------------------
WDir2702702200028025002803003100340
WSpd3 5 3 0 0 3 3 0 3 3 3 0 5
WGst-- -- -- -- -- -- -- -- -- -- -- -- --
Raw hourly METARs
KIAH 230253Z 27003KT 10SM SCT250 12/M01 A3011 RMK AO2 SLP197 T01171011 51015
KIAH 230353Z 27005KT 10SM SCT250 09/M01 A3014 RMK AO2 SLP206 T00941006
KIAH 230453Z 22003KT 10SM SCT250 08/02 A3016 RMK AO2 SLP213 T00780017
KIAH 230553Z 00000KT 10SM SCT250 06/02 A3016 RMK AO2 SLP215 T00610017 10150 20061 402110061 51018
KIAH 230653Z 00000KT 10SM SCT250 05/02 A3016 RMK AO2 SLP215 T00500017
KIAH 230753Z 28003KT 10SM SCT250 06/02 A3017 RMK AO2 SLP216 T00560017
KIAH 230853Z 25003KT 10SM SCT250 06/02 A3018 RMK AO2 SLP219 T00560017 53005
KIAH 230953Z 00000KT 10SM SCT250 04/02 A3018 RMK AO2 SLP220 T00440017
KIAH 231053Z 28003KT 10SM SCT250 04/02 A3020 RMK AO2 SLP226 T00390017
KIAH 231153Z 30003KT 10SM SCT250 04/M01 A3022 RMK AO2 SLP233 T00441006 10067 20039 53014
KIAH 231253Z 31003KT 10SM SCT250 04/00 A3024 RMK AO2 SLP242 T00440000
KIAH 231353Z 00000KT 10SM BKN250 05/M01 A3026 RMK AO2 SLP249 T00501006
KIAH 231453Z 34005KT 10SM BKN250 09/01 A3029 RMK AO2 SLP256 T00890006 51023